x

Western Caribbean - 195 Nm Wsw Of Negril Jamiaca (42057) Weather Station

5:10 - Tue 30th May 2017 All times are UTC.

  • Wind
    18mph, 22mph gusts
  • Sea Temp 83°f
  • Aire Temp 83°f
  • Sea Pressure 1015.9mb

More Historic Weather Station data

Upgrade to MSW Pro to gain access to the past 30 days of data for over 8000 Wavebouys and Weather Stations around the globe.

Join Pro

Comparision Forecast

View Surf forecast
   
mar 05/30 5:10  -   -   -  18 22 mph 1015.9mb 83f 83f
5:00  -   -   -  18 22 mph 1015.9mb 83f 83f
4:50 4.5ft 7s 5s 18 22 mph 1016mb 83f 83f
4:40  -   -   -  18 20 mph 1016mb 83f 83f
4:30  -   -   -  18 20 mph 1016mb 83f 83f
4:20  -   -   -  18 22 mph 1016mb 83f 83f
4:10  -   -   -  18 20 mph 1015.9mb 83f 83f
4:00  -   -   -  16 20 mph 1016mb 83f 83f
3:50 4.5ft 8s 5s 13 18 mph 1015.8mb 83f 83f
3:40  -   -   -  11 16 mph 1015.8mb 83f 82f
3:30  -   -   -  11 16 mph 1015.8mb 83f 81f
3:20  -   -   -  13 18 mph 1015.6mb 83f 82f
3:10  -   -   -  18 22 mph 1015.5mb 83f 83f
3:00  -   -   -  18 22 mph 1015.3mb 83f 83f
2:50 4ft 5s 5s 16 22 mph 1015.3mb 83f 83f
2:40  -   -   -  13 18 mph 1015.1mb 83f 82f
2:30  -   -   -  16 18 mph 1015mb 83f 83f
2:20  -   -   -  16 20 mph 1015mb 83f 83f
2:10  -   -   -  18 20 mph 1014.8mb 83f 83f
2:00  -   -   -  16 20 mph 1014.5mb 83f 83f
1:50 4.5ft 7s 5s 18 22 mph 1014.5mb 83f 83f
1:40  -   -   -  18 20 mph 1014.4mb 83f 83f
1:30  -   -   -  16 20 mph 1014.4mb 83f 83f
1:20  -   -   -  18 22 mph 1014.3mb 83f 83f
1:10  -   -   -  18 20 mph 1014.1mb 83f 83f
1:00  -   -   -  18 20 mph 1014mb 83f 83f
12:50 4.5ft 7s 5s 16 20 mph 1013.9mb 83f 83f
12:40  -   -   -  18 20 mph 1013.9mb 83f 83f
12:30  -   -   -  18 20 mph 1013.6mb 84f 83f
12:20  -   -   -  18 20 mph 1013.6mb 84f 83f
12:10  -   -   -  18 22 mph 1013.8mb 84f 83f
12:00  -   -   -  18 22 mph 1013.5mb 84f 83f
lun 05/29 11:50 4.5ft 6s 5s 18 22 mph 1013.5mb 84f 84f
11:40  -   -   -  18 20 mph 1013.5mb 84f 83f
11:30  -   -   -  18 22 mph 1013.5mb 84f 83f
11:20  -   -   -  18 20 mph 1013.5mb 84f 83f
11:10  -   -   -  18 20 mph 1013.5mb 84f 84f
11:00  -   -   -  18 22 mph 1013.5mb 84f 84f
10:50 4.5ft 7s 5s 18 22 mph 1013.5mb 84f 84f
10:40  -   -   -  18 25 mph 1013.3mb 84f 84f
10:30  -   -   -  18 22 mph 1013.3mb 84f 84f
10:20  -   -   -  18 22 mph 1013.4mb 84f 84f
10:10  -   -   -  18 22 mph 1013.5mb 84f 83f
10:00  -   -   -  18 22 mph 1013.3mb 84f 84f
9:50 4.5ft 7s 5s 18 20 mph 1013.3mb 84f 84f
9:40 4.5ft  -  5s 16 22 mph 1013.3mb 84f 83f
9:30  -   -   -  16 22 mph 1013.4mb 84f 83f
9:20  -   -   -  18 22 mph 1013.4mb 84f 84f
9:10  -   -   -  16 20 mph 1013.6mb 84f 84f
9:00  -   -   -  16 20 mph 1013.5mb 84f 84f
8:50 3.5ft 7s 5s 16 20 mph 1013.5mb 84f 84f
8:40 3.5ft  -  5s 16 18 mph 1013.5mb 84f 84f
8:30  -   -   -  18 20 mph 1013.5mb 84f 84f
8:20  -   -   -  18 20 mph 1013.5mb 84f 84f
8:10  -   -   -  18 20 mph 1013.8mb 84f 84f
8:00  -   -   -  18 20 mph 1013.9mb 84f 84f
7:50 4ft 7s 4s 18 20 mph 1013.9mb 84f 84f
7:40  -   -   -  18 22 mph 1014mb 84f 84f
7:30  -   -   -  18 22 mph 1014mb 84f 84f
7:20  -   -   -  18 22 mph 1014mb 84f 84f
7:10  -   -   -  18 22 mph 1014.4mb 84f 84f
7:00  -   -   -  18 22 mph 1014.5mb 84f 84f
6:50 4ft 7s 4s 18 22 mph 1014.5mb 84f 84f
6:40 4ft  -  4s 18 22 mph 1014.5mb 84f 83f
6:30  -   -   -  18 20 mph 1014.6mb 84f 83f
6:20  -   -   -  18 22 mph 1014.9mb 84f 83f
6:10  -   -   -  16 22 mph 1014.9mb 84f 83f
6:00  -   -   -  18 20 mph 1014.9mb 84f 84f
5:50 3.5ft 8s 5s 18 22 mph 1014.9mb 84f 84f
5:40  -   -   -  18 20 mph 1014.9mb 84f 83f
5:30  -   -   -  18 22 mph 1014.9mb 84f 83f
5:20  -   -   -  18 22 mph 1015mb 84f 84f
5:10  -   -   -  18 22 mph 1015mb 84f 84f
5:00  -   -   -  18 22 mph 1015.1mb 84f 83f
4:50 4ft 7s 5s 16 20 mph 1015.1mb - 83f
4:40 4ft  -  5s 18 22 mph 1015.4mb - 83f
4:30  -   -   -  18 22 mph 1015.4mb 84f 83f
4:20  -   -   -  18 22 mph 1015.4mb 84f 83f
4:10  -   -   -  16 20 mph 1015.4mb 84f 83f
4:00  -   -   -  16 20 mph 1015.4mb 84f 83f
3:50 3.5ft 8s 5s 16 20 mph 1015.3mb 84f 83f
3:40 3.5ft  -  5s 16 18 mph 1015.3mb 84f 83f
3:30  -   -   -  16 20 mph 1015.4mb 84f 83f
3:20  -   -   -  16 18 mph 1015.4mb 84f 83f
3:10  -   -   -  16 20 mph 1015.4mb 84f 83f
3:00  -   -   -  16 20 mph 1015.3mb 84f 83f
2:50 4ft 7s 5s 16 18 mph 1015.3mb 84f 83f
2:40 4ft  -  5s 16 18 mph 1015.3mb 84f 83f
2:30  -   -   -  16 18 mph 1015.3mb 84f 83f
2:20  -   -   -  16 18 mph 1015.3mb 83f 83f
2:10  -   -   -  13 18 mph 1015mb 83f 83f
2:00  -   -   -  13 18 mph 1015.1mb 83f 83f
1:50 3.5ft 8s 5s 13 18 mph 1015mb 83f 83f
1:40 3.5ft  -  5s 13 16 mph 1015mb 83f 83f
1:30  -   -   -  13 16 mph 1015mb 83f 83f
1:20  -   -   -  13 18 mph 1014.9mb 83f 83f
1:10  -   -   -  13 16 mph 1015mb 83f 83f
1:00  -   -   -  13 16 mph 1015mb 83f 83f
12:50 4ft 8s 5s 13 16 mph 1015mb 83f 83f
12:40 4ft  -  5s 16 18 mph 1015mb 83f 83f
12:30  -   -   -  13 18 mph 1014.9mb 83f 83f
12:20  -   -   -  16 18 mph 1014.8mb 83f 83f
12:10  -   -   -  16 18 mph 1014.8mb - 83f
12:00  -   -   -  16 20 mph 1014.6mb 83f 83f
11:50 4.5ft 7s 5s 16 20 mph 1014.5mb 83f 83f
11:40 4.5ft  -  5s 18 20 mph 1014.4mb 83f 83f
11:30  -   -   -  18 20 mph 1014.4mb 83f 83f
11:20  -   -   -  16 20 mph 1014.4mb 83f 83f
11:10  -   -   -  16 22 mph 1014.3mb 83f 83f
11:00  -   -   -  13 18 mph 1014.3mb 83f 83f
10:50 4ft 6s 5s 13 18 mph 1014.3mb 83f 83f
10:40  -   -   -  13 16 mph 1014.1mb 83f 83f
10:30  -   -   -  13 16 mph 1014mb 83f 83f
10:20  -   -   -  13 18 mph 1013.9mb 83f 83f
10:10  -   -   -  13 18 mph 1013.8mb 83f 83f
10:00  -   -   -  13 16 mph 1013.9mb 83f 83f
9:50 4.5ft 7s 5s 13 16 mph 1013.9mb 83f 83f
9:40 4.5ft  -  5s 16 20 mph 1013.8mb 83f 83f
9:30  -   -   -  13 18 mph 1013.5mb 83f 83f
9:20  -   -   -  13 16 mph 1013.5mb 83f 83f
9:10  -   -   -  16 18 mph 1013.5mb 83f 83f
9:00  -   -   -  13 18 mph 1013.4mb 83f 83f
8:50 4ft 5s 5s 16 18 mph 1013.3mb 83f 83f
8:40 4ft  -  5s 16 18 mph 1013.3mb 83f 83f
8:30  -   -   -  13 18 mph 1013.3mb 83f 83f
8:20  -   -   -  16 18 mph 1013.3mb 83f 83f
8:10  -   -   -  16 18 mph 1013.3mb 83f 83f
8:00  -   -   -  16 18 mph 1013.5mb 83f 83f
7:50 4ft 7s 5s 16 20 mph 1013.5mb 83f 83f
7:40 4ft  -  5s 16 18 mph 1013.5mb 83f 83f
7:30  -   -   -  16 20 mph 1013.5mb 83f 83f
7:20  -   -   -  16 20 mph 1013.5mb 83f 83f
7:10  -   -   -  16 20 mph 1013.8mb 83f 83f
7:00  -   -   -  16 20 mph 1013.9mb 83f 83f
6:50 3.5ft 7s 4s 16 20 mph 1014mb 83f 83f
6:40 3.5ft  -  4s 18 20 mph 1014mb 83f 83f
6:30  -   -   -  18 20 mph 1014mb 83f 83f
6:20  -   -   -  18 20 mph 1014mb 83f 83f
6:10  -   -   -  18 20 mph 1014.1mb 83f 83f
6:00  -   -   -  18 22 mph 1014.1mb 83f 83f
5:50 4ft 8s 4s 18 22 mph 1014.3mb 83f 83f
5:40  -   -   -  18 22 mph 1014.4mb 83f 83f
5:30  -   -   -  18 22 mph 1014.5mb 83f 83f
5:20  -   -   -  20 22 mph 1014.5mb 83f 83f
5:10  -   -   -  20 25 mph 1014.6mb 83f 83f
5:00  -   -   -  18 22 mph 1014.8mb 83f 83f
4:50 3.5ft 4s 4s 18 22 mph 1014.8mb 83f 83f
4:40 3.5ft  -  4s 18 22 mph 1014.9mb 83f 83f
4:30  -   -   -  20 25 mph 1014.9mb 83f 83f
4:20  -   -   -  18 22 mph 1015mb 83f 83f
4:10  -   -   -  18 22 mph 1015mb 83f 83f
4:00  -   -   -  18 22 mph 1015mb 83f 83f
3:50 3.5ft 8s 4s 18 22 mph 1015mb 83f 83f
3:40  -   -   -  18 22 mph 1015mb 83f 83f
3:30  -   -   -  18 20 mph 1014.9mb 83f 83f
3:20  -   -   -  18 22 mph 1014.9mb 83f 83f
3:10  -   -   -  18 22 mph 1014.8mb 84f 83f
3:00  -   -   -  18 22 mph 1014.8mb 84f 83f
2:50 3.5ft 8s 5s 18 22 mph 1014.8mb 84f 83f
2:40 3.5ft  -  5s 18 22 mph 1014.8mb 84f 83f
2:30  -   -   -  18 20 mph 1014.8mb 84f 83f
2:20  -   -   -  16 20 mph 1014.6mb 84f 83f
2:10  -   -   -  16 18 mph 1014.6mb 84f 83f
2:00  -   -   -  16 18 mph 1014.5mb 84f 83f
1:50 3.5ft 8s 4s 16 20 mph 1014.5mb 84f 83f
1:40 3.5ft  -  4s 16 18 mph 1014.5mb 84f 83f
1:30  -   -   -  16 18 mph 1014.3mb 84f 83f
1:20  -   -   -  16 18 mph 1014.1mb 84f 83f
1:10  -   -   -  16 18 mph 1014mb 84f 83f
1:00  -   -   -  16 18 mph 1014mb 84f 83f
12:50 3ft 8s 4s 16 18 mph 1013.9mb 84f 83f
12:40  -   -   -  13 18 mph 1013.9mb 84f 83f
12:30  -   -   -  13 18 mph 1013.8mb 84f 83f
12:20  -   -   -  13 18 mph 1013.6mb 84f 83f
12:10  -   -   -  13 18 mph 1013.6mb 84f 83f
12:00  -   -   -  16 18 mph 1013.5mb 84f 83f
dom 05/28 11:50 3.5ft 8s 5s 16 18 mph 1013.5mb 84f 83f
11:40 3.5ft  -  5s 13 18 mph 1013.4mb 84f 83f
11:30  -   -   -  13 18 mph 1013.3mb 84f 83f
11:20  -   -   -  13 16 mph 1013.3mb 84f 83f
11:10  -   -   -  13 16 mph 1013.1mb 84f 83f
11:00  -   -   -  13 16 mph 1013.1mb 84f 83f
10:50 3.5ft 8s 5s 13 18 mph 1013.1mb 84f 83f
10:40  -   -   -  13 18 mph 1013.3mb 84f 84f
10:30  -   -   -  16 18 mph 1013.1mb 84f -
10:20  -   -   -  13 18 mph 1013mb 84f 83f
10:10  -   -   -  13 16 mph 1013mb 84f 83f
10:00  -   -   -  13 16 mph 1013mb 84f 84f
9:50 3.5ft 8s 5s 13 16 mph 1012.9mb 84f 84f
9:40  -   -   -  13 16 mph 1013mb 84f 84f
9:30  -   -   -  13 16 mph 1013mb 84f 84f
9:20  -   -   -  13 16 mph 1013.1mb 84f 84f
9:10  -   -   -  13 16 mph 1013.1mb 84f 84f
9:00  -   -   -  13 16 mph 1013.3mb 84f 84f
8:50 3.5ft 8s 5s 13 16 mph 1013.3mb 84f 84f
8:40 3.5ft  -  5s 13 16 mph 1013.4mb 84f 84f
8:30  -   -   -  13 16 mph 1013.4mb 84f 84f
8:20  -   -   -  13 16 mph 1013.6mb 84f 84f
8:10  -   -   -  13 18 mph 1013.6mb 84f 83f
8:00  -   -   -  13 16 mph 1013.5mb 84f 83f
7:50 3.5ft 8s 5s 13 18 mph 1013.5mb 84f 83f
7:40 3.5ft  -  5s 13 18 mph 1013.6mb 84f 83f
7:30  -   -   -  13 18 mph 1013.6mb 84f 83f
7:20  -   -   -  13 18 mph 1013.6mb 84f 83f
7:10  -   -   -  13 18 mph 1013.9mb 84f 83f
7:00  -   -   -  16 18 mph 1013.8mb 84f 83f
6:50 3.5ft 8s 5s 16 20 mph 1013.6mb 84f 83f
6:40  -   -   -  13 18 mph 1013.9mb 84f 83f
6:30  -   -   -  13 18 mph 1014mb 84f 83f
6:20  -   -   -  13 16 mph 1014.1mb 84f 83f
6:10  -   -   -  16 18 mph 1014.3mb 84f 83f
6:00  -   -   -  13 18 mph 1014.3mb 84f 83f
5:50 3.5ft 8s 5s 13 18 mph 1014.3mb 84f 83f
5:40  -   -   -  13 18 mph 1014.4mb 84f 83f
5:30  -   -   -  13 18 mph 1014.4mb 84f 83f
5:20  -   -   -  13 18 mph 1014.5mb 84f 83f
5:10  -   -   -  13 18 mph 1014.6mb 84f 83f
5:00  -   -   -  13 16 mph 1014.6mb 84f 83f
4:50 4ft 8s 5s 13 16 mph 1014.9mb 84f 83f
4:40 4ft  -  5s 13 18 mph 1015mb 84f 83f
4:30  -   -   -  13 18 mph 1014.9mb 84f 83f
4:20  -   -   -  13 18 mph 1015mb 84f 83f
4:10  -   -   -  13 18 mph 1015mb 84f 83f
4:00  -   -   -  13 16 mph 1015mb 84f 83f
3:50 4ft 8s 5s 13 16 mph 1015.1mb 84f 83f
3:40 4ft  -  5s 13 16 mph 1015mb 84f 83f
3:30  -   -   -  13 16 mph 1015.1mb 84f 83f
3:20  -   -   -  13 16 mph 1015.3mb 84f 83f
3:10  -   -   -  13 18 mph 1015.3mb 84f 83f
3:00  -   -   -  13 18 mph 1015.1mb 84f 83f
2:50 3.5ft 5s 5s 16 20 mph 1015.1mb 84f 83f
2:40 3.5ft  -  5s 16 18 mph 1015.1mb 84f 83f
2:30  -   -   -  13 18 mph 1015.1mb 84f 83f
2:20  -   -   -  13 18 mph 1015mb 84f 83f
2:10  -   -   -  13 18 mph 1015mb 84f 83f
2:00  -   -   -  13 18 mph 1015mb 84f 83f
1:50 3.5ft 6s 5s 13 18 mph 1015mb 84f 83f
1:40  -   -   -  13 18 mph 1015mb 84f 83f
1:30  -   -   -  13 18 mph 1015mb 84f 83f
1:20  -   -   -  13 18 mph 1015mb - 83f
1:10  -   -   -  13 16 mph 1014.9mb 84f 83f
1:00  -   -   -  13 18 mph 1014.8mb 84f 83f
12:50 4ft 8s 5s 13 16 mph 1014.6mb 84f 83f
12:40  -   -   -  13 16 mph 1014.5mb 84f 83f
12:30  -   -   -  13 16 mph 1014.4mb 83f 83f
12:20  -   -   -  13 18 mph 1014.4mb 83f 83f
12:10  -   -   -  16 18 mph 1014.1mb 83f 83f
12:00  -   -   -  13 18 mph 1014.1mb 83f 83f
11:50 3.5ft 8s 5s 13 16 mph 1013.9mb 83f 83f
11:40 3.5ft  -  5s 13 18 mph 1013.9mb 83f 83f
11:30  -   -   -  13 18 mph 1013.8mb 83f 83f
11:20  -   -   -  13 18 mph 1013.5mb 83f 83f
11:10  -   -   -  13 18 mph 1013.5mb 83f 82f
11:00  -   -   -  13 16 mph 1013.4mb 83f 83f
10:50 4ft 8s 5s 13 16 mph 1013.3mb 83f 82f
10:40 4ft  -  5s 13 16 mph 1013mb 83f 82f
10:30  -   -   -  13 16 mph 1013mb 83f 82f
10:20  -   -   -  13 16 mph 1013mb 83f -
10:10  -   -   -  13 16 mph 1013mb 83f 82f
10:00  -   -   -  13 16 mph 1013mb 83f 82f
9:50 4.5ft 8s 5s 13 16 mph 1012.9mb 83f 83f
9:40  -   -   -  13 16 mph 1012.9mb 83f 83f
9:30  -   -   -  13 16 mph 1012.9mb 83f 82f
9:20  -   -   -  13 16 mph 1012.9mb 83f 82f
9:10  -   -   -  13 16 mph 1012.9mb 83f 82f
9:00  -   -   -  13 16 mph 1012.9mb 83f 83f
8:50 4.5ft 8s 5s 13 18 mph 1012.9mb 83f 83f
8:40 4.5ft  -  5s 13 16 mph 1012.9mb 83f 83f
8:30  -   -   -  13 18 mph 1012.9mb 83f 83f
8:20  -   -   -  13 16 mph 1013mb 83f 83f
8:10  -   -   -  13 16 mph 1013mb 83f 83f
8:00  -   -   -  13 16 mph 1013.1mb 83f 83f
7:50 4ft 8s 5s 13 16 mph 1013.3mb 83f 83f
7:40 4ft  -  5s 13 16 mph 1013.4mb 83f 83f
7:30  -   -   -  13 16 mph 1013.5mb 83f 83f
7:20  -   -   -  13 18 mph 1013.5mb 83f 83f
7:10  -   -   -  16 18 mph 1013.5mb 83f 82f
7:00  -   -   -  13 16 mph 1013.5mb 83f 83f
6:50 4ft 9s 5s 13 16 mph 1013.5mb 83f 83f
6:40  -   -   -  13 18 mph 1013.6mb 83f 83f
6:30  -   -   -  16 18 mph 1013.6mb 83f 83f
6:20  -   -   -  13 18 mph 1013.8mb 83f 83f
6:10  -   -   -  13 16 mph 1014mb 83f 83f
6:00  -   -   -  13 16 mph 1014.1mb 83f 83f
5:50 4.5ft 8s 5s 13 18 mph 1014.3mb 83f 83f
5:40 4.5ft  -  5s 16 18 mph 1014.3mb 83f 83f
5:30  -   -   -  13 16 mph 1014.4mb 84f 83f
5:20  -   -   -  13 18 mph 1014.4mb 84f 83f
5:10  -   -   -  16 18 mph 1014.5mb 84f 83f
5:00  -   -   -  16 18 mph 1014.6mb 84f 83f
4:50 4.5ft 9s 5s 16 18 mph 1014.6mb 84f 83f
4:40  -   -   -  16 18 mph 1014.6mb 84f 83f
4:30  -   -   -  16 18 mph 1014.8mb 84f 83f
4:20  -   -   -  16 20 mph 1014.8mb 84f 83f
4:10  -   -   -  16 20 mph 1014.9mb 84f 83f
4:00  -   -   -  16 20 mph 1015mb 84f 83f
3:50 4.5ft 9s 5s 16 20 mph 1015mb 84f 83f
3:40  -   -   -  16 20 mph 1014.9mb 84f 83f
3:30  -   -   -  16 20 mph 1014.8mb 84f 83f
3:20  -   -   -  16 20 mph 1014.8mb 84f 83f
3:10  -   -   -  16 20 mph 1014.6mb 84f 83f
3:00  -   -   -  16 20 mph 1014.5mb 84f 83f
2:50 4.5ft 9s 5s 16 20 mph 1014.4mb 84f 83f
2:40  -   -   -  16 20 mph 1014.3mb 84f 83f
2:30  -   -   -  16 20 mph 1014.1mb 84f 83f
2:20  -   -   -  18 22 mph 1014mb 84f 83f
2:10  -   -   -  18 22 mph 1013.9mb 84f 83f
2:00  -   -   -  18 20 mph 1013.8mb 84f -
1:50 4.5ft 9s 5s 18 22 mph 1013.8mb 84f 83f
1:40  -   -   -  18 20 mph 1013.5mb 84f 83f
1:30  -   -   -  18 20 mph 1013.5mb 84f 83f
1:20  -   -   -  18 20 mph 1013.5mb 84f 83f
1:10  -   -   -  18 22 mph 1013.5mb 84f 83f
1:00  -   -   -  18 20 mph 1013.4mb 84f 83f
12:50 4.5ft 9s 5s 18 22 mph 1013.3mb 84f 83f
12:40  -   -   -  18 20 mph 1013.3mb - 83f
12:30  -   -   -  18 22 mph 1013.3mb 84f 83f
12:20  -   -   -  18 20 mph 1013.3mb 84f 83f
12:10  -   -   -  18 22 mph 1013.3mb 84f 83f
12:00  -   -   -  16 20 mph 1013.3mb 84f 83f
sáb 05/27 11:50 4.5ft 9s 5s 16 20 mph 1013.3mb 84f 83f
11:40  -   -   -  16 20 mph 1013.3mb 84f 83f
11:30  -   -   -  16 20 mph 1013.1mb 84f 83f
11:20  -   -   -  18 20 mph 1013mb 84f 83f
11:10  -   -   -  18 20 mph 1013mb 84f 83f
11:00  -   -   -  18 22 mph 1013mb 84f 83f
10:50 4ft 9s 5s 16 20 mph 1013mb 84f 83f
10:40  -   -   -  16 20 mph 1013mb 84f 83f
10:30  -   -   -  16 22 mph 1013mb 84f 83f
10:20  -   -   -  16 18 mph 1013mb 84f 83f
10:10  -   -   -  16 18 mph 1013mb 84f 83f
10:00  -   -   -  13 18 mph 1013.1mb 84f 83f
9:50 4ft 9s 5s 13 18 mph 1013mb 84f 83f
9:40  -   -   -  13 18 mph 1013.1mb 84f 83f
9:30  -   -   -  13 18 mph 1013.3mb 84f 83f
9:20  -   -   -  13 18 mph 1013.3mb 84f 83f
9:10  -   -   -  13 16 mph 1013.4mb 84f 83f
9:00  -   -   -  13 18 mph 1013.4mb 84f 83f
8:50 4.5ft 9s 5s 16 18 mph 1013.4mb 84f 83f
8:40  -   -   -  13 18 mph 1013.5mb 84f 83f
8:30  -   -   -  16 18 mph 1013.6mb 84f -
8:20  -   -   -  16 18 mph 1013.5mb 84f 83f
8:10  -   -   -  16 18 mph 1013.6mb 84f 83f
8:00  -   -   -  16 20 mph 1013.9mb 84f 83f
7:50 4ft 9s 5s 16 18 mph 1014mb 84f 84f
7:40 4ft  -  5s 16 20 mph 1014mb 84f 84f
7:30  -   -   -  16 20 mph 1014.1mb 84f 84f
7:20  -   -   -  16 20 mph 1014.1mb 84f 84f
7:10  -   -   -  16 20 mph 1014.4mb 84f 83f
7:00  -   -   -  16 18 mph 1014.5mb 84f 83f
6:50 4.5ft 7s 6s 16 18 mph 1014.5mb 84f 83f
6:40  -   -   -  16 18 mph 1014.5mb 84f 83f
6:30  -   -   -  16 18 mph 1014.6mb 84f 83f
6:20  -   -   -  16 18 mph 1014.9mb 84f 83f
6:10  -   -   -  16 18 mph 1015mb 84f 83f
6:00  -   -   -  13 18 mph 1015.1mb 84f 83f
5:50 4.5ft 9s 6s 16 18 mph 1015.3mb 84f 83f
5:40  -   -   -  16 18 mph 1015.4mb 84f 83f
5:30  -   -   -  13 16 mph 1015.5mb 84f 83f
5:20  -   -   -  13 18 mph 1015.5mb 84f 83f
5:10  -   -   -  13 16 mph 1015.5mb 84f 83f
5:00  -   -   -  13 18 mph 1015.8mb 84f 83f
4:50 4.5ft 9s 6s 13 18 mph 1015.8mb 84f 83f
4:40  -   -   -  13 18 mph 1015.9mb 84f 83f
4:30  -   -   -  13 16 mph 1016mb 84f 83f
4:20  -   -   -  13 16 mph 1016mb 84f 83f
4:10  -   -   -  13 16 mph 1016mb 84f 83f
4:00  -   -   -  13 16 mph 1016mb 83f 83f
3:50 4.5ft 9s 6s 13 18 mph 1016mb 84f 83f
3:40 4.5ft  -  6s 16 18 mph 1016mb 83f 83f
3:30  -   -   -  13 18 mph 1016mb 83f 83f
3:20  -   -   -  16 18 mph 1016mb 84f 83f
3:10  -   -   -  13 18 mph 1016mb 84f 83f
3:00  -   -   -  13 16 mph 1016mb 84f 83f
2:50 5ft 9s 6s 13 18 mph 1016.1mb 84f 83f
2:40  -   -   -  13 18 mph 1016.3mb 84f 83f
2:30  -   -   -  13 18 mph 1016.3mb 84f 83f
2:20  -   -   -  13 18 mph 1016.3mb 84f 83f
2:10  -   -   -  13 16 mph 1016mb 84f 83f
2:00  -   -   -  13 18 mph 1016mb 84f 83f
1:50 5ft 10s 6s 13 16 mph 1016mb 84f 83f
1:40  -   -   -  13 18 mph 1016mb 84f 83f
1:30  -   -   -  13 16 mph 1016mb 84f 83f
1:20  -   -   -  13 18 mph 1016mb - 83f
1:10  -   -   -  13 18 mph 1016mb 83f 83f
1:00  -   -   -  13 18 mph 1015.8mb 83f -
12:50 5.5ft 9s 6s 13 18 mph 1015.6mb 83f 83f
12:40 5.5ft  -  6s 13 18 mph 1015.5mb 83f 83f
12:30  -   -   -  13 16 mph 1015.5mb 83f 83f
12:20  -   -   -  13 16 mph 1015.4mb 83f 83f
12:10  -   -   -  13 16 mph 1015.3mb 83f 83f
12:00  -   -   -  13 16 mph 1015.1mb 83f 83f
11:50 5ft 8s 6s 11 16 mph 1015mb 83f 83f
11:40 5ft  -  6s 11 13 mph 1015mb 83f 83f
11:30  -   -   -  11 13 mph 1015mb 83f 83f
11:20  -   -   -  11 13 mph 1014.9mb 83f 83f
11:10  -   -   -  11 16 mph 1014.9mb 83f 82f
11:00  -   -   -  11 16 mph 1014.6mb 83f 83f
10:50 6ft 9s 6s 11 16 mph 1014.6mb 83f 83f
10:40 6ft  -  6s 11 16 mph 1014.6mb 83f 83f
10:30  -   -   -  11 13 mph 1014.5mb 83f 83f
10:20  -   -   -  11 16 mph 1014.4mb 83f 83f
10:10  -   -   -  13 16 mph 1014.4mb 83f 83f
10:00  -   -   -  11 16 mph 1014.4mb 83f 83f
9:50 6ft 10s 6s 13 16 mph 1014.3mb 83f 83f
9:40  -   -   -  11 16 mph 1014.3mb 83f 83f
9:30  -   -   -  13 16 mph 1014.1mb 83f 83f
9:20  -   -   -  11 16 mph 1014.1mb 83f 83f
9:10  -   -   -  11 16 mph 1014mb 83f 83f
9:00  -   -   -  13 16 mph 1013.9mb 83f 83f
8:50 5ft 10s 6s 13 18 mph 1013.9mb 83f 83f
8:40 5ft  -  6s 11 16 mph 1013.8mb 83f 83f
8:30  -   -   -  11 16 mph 1013.9mb 83f 83f
8:20  -   -   -  13 16 mph 1013.9mb 83f 83f
8:10  -   -   -  13 18 mph 1014mb 83f 83f
8:00  -   -   -  13 16 mph 1014mb 83f 83f
7:50 5ft 8s 6s 13 18 mph 1013.9mb 83f 83f
7:40  -   -   -  13 18 mph 1014mb 83f 83f
7:30  -   -   -  13 16 mph 1014mb 83f 83f
7:20  -   -   -  13 16 mph 1014mb 83f 83f
7:10  -   -   -  13 18 mph 1014.1mb 83f 83f
7:00  -   -   -  13 16 mph 1014.4mb 83f 83f
6:50 5.5ft 10s 6s 13 18 mph 1014.4mb - 83f
6:40 5.5ft  -  6s 13 18 mph 1014.5mb 83f 83f
6:30  -   -   -  16 18 mph 1014.6mb 83f 83f
6:20  -   -   -  16 18 mph 1014.8mb 83f 83f
6:10  -   -   -  16 18 mph 1014.8mb 83f 83f
6:00  -   -   -  16 20 mph 1014.9mb 83f 83f
5:50 6ft 10s 6s 16 20 mph 1015mb 83f 83f
5:40 6ft  -  6s 16 20 mph 1015.1mb 83f 83f
5:30  -   -   -  16 20 mph 1015.3mb 83f 83f
5:20  -   -   -  16 20 mph 1015.5mb 83f 83f
5:10  -   -   -  16 20 mph 1015.4mb 83f 83f
5:00  -   -   -  16 20 mph 1015.4mb 83f 83f
4:50 6ft 10s 6s 16 20 mph 1015.5mb 83f 83f
4:40 6ft  -  6s 16 20 mph 1015.8mb 83f 83f
4:30  -   -   -  16 20 mph 1015.8mb 83f 83f
4:20  -   -   -  18 20 mph 1015.8mb 83f 83f
4:10  -   -   -  18 20 mph 1015.8mb 83f 83f
4:00  -   -   -  18 22 mph 1015.8mb 84f 83f
3:50 6ft 9s 6s 18 20 mph 1015.8mb 84f 83f
3:40 6ft  -  6s 18 20 mph 1015.6mb 83f 83f
3:30  -   -   -  18 20 mph 1015.5mb 83f 83f
3:20  -   -   -  18 22 mph 1015.4mb 83f 84f
3:10  -   -   -  20 25 mph 1015.3mb 83f 83f
3:00  -   -   -  18 25 mph 1015.1mb 84f 84f
2:50 6ft 10s 5s 20 25 mph 1015.1mb 84f 84f
2:40 6ft  -  5s 20 22 mph 1015mb 84f 83f
2:30  -   -   -  20 25 mph 1015mb 84f 83f
2:20  -   -   -  18 22 mph 1015mb 84f 83f
2:10  -   -   -  18 22 mph 1014.8mb 84f 83f
2:00  -   -   -  18 22 mph 1014.6mb 84f 83f
1:50 6ft 10s 5s 18 22 mph 1014.4mb 84f 83f
1:40  -   -   -  18 22 mph 1014.4mb 84f 84f
1:30  -   -   -  18 22 mph 1014.3mb 84f 84f
1:20  -   -   -  18 22 mph 1014.1mb 84f 84f
1:10  -   -   -  18 22 mph 1014.1mb 84f 84f
1:00  -   -   -  18 22 mph 1014mb 84f 84f
12:50 5.5ft 10s 6s 18 22 mph 1013.9mb 84f 84f
12:40  -   -   -  18 22 mph 1013.8mb 84f 84f
12:30  -   -   -  16 20 mph 1013.8mb 84f 84f
12:20  -   -   -  16 20 mph 1013.5mb 84f 84f
12:10  -   -   -  18 20 mph 1013.5mb 84f 84f
12:00  -   -   -  18 22 mph 1013.3mb 84f 84f
vie 05/26 11:50 6ft 6s 5s 18 22 mph 1013.3mb 84f 84f
11:40 6ft  -  5s 18 22 mph 1013.3mb 84f 84f
11:30  -   -   -  18 25 mph 1013mb 84f 84f
11:20  -   -   -  18 22 mph 1013mb 84f 84f
11:10  -   -   -  18 22 mph 1013mb 84f 84f
11:00  -   -   -  18 22 mph 1013mb 84f 84f
10:50 6ft 5s 5s 20 22 mph 1013mb 84f 84f
10:40 6ft  -  5s 18 22 mph 1013mb 84f 84f
10:30  -   -   -  18 20 mph 1012.9mb 84f 84f
10:20  -   -   -  18 20 mph 1012.8mb 84f 84f
10:10  -   -   -  18 22 mph 1012.8mb 84f 84f
10:00  -   -   -  18 22 mph 1012.8mb 84f 84f
9:50 6.5ft 7s 6s 18 22 mph 1012.8mb 84f 84f
9:40 6.5ft  -  6s 18 22 mph 1012.8mb 84f 84f
9:30  -   -   -  18 22 mph 1012.9mb 84f 84f
9:20  -   -   -  18 22 mph 1012.9mb 84f 84f
9:10  -   -   -  18 22 mph 1013mb 84f 84f
9:00  -   -   -  18 22 mph 1013mb 84f 84f
8:50 7ft 8s 6s 18 22 mph 1013mb 84f 84f
8:40 7ft  -  6s 18 22 mph 1013mb 84f 84f
8:30  -   -   -  18 22 mph 1013mb 84f 84f
8:20  -   -   -  18 22 mph 1013mb 84f 84f
8:10  -   -   -  18 22 mph 1013mb 84f 84f
8:00  -   -   -  20 25 mph 1013mb 84f 84f
7:50 6.5ft 8s 6s 20 25 mph 1013.3mb 84f 84f
7:40  -   -   -  18 22 mph 1013.3mb 84f 84f
7:30  -   -   -  16 22 mph 1013.5mb 84f 83f
7:20  -   -   -  18 22 mph 1013.5mb 84f 84f
7:10  -   -   -  18 22 mph 1013.5mb - 84f
7:00  -   -   -  18 22 mph 1013.6mb 84f 84f
6:50 6.5ft 7s 6s 20 22 mph 1013.8mb 84f 84f
6:40 6.5ft  -  6s 20 25 mph 1013.9mb 84f 84f
6:30  -   -   -  18 22 mph 1014mb 84f 84f
6:20  -   -   -  18 22 mph 1014mb 84f 84f
6:10  -   -   -  18 22 mph 1014.1mb 84f 84f
6:00  -   -   -  18 22 mph 1014.3mb 84f 84f
5:30  -   -   -  18 25 mph 1014.4mb 84f 84f
5:20  -   -   -  20 25 mph 1014.4mb 84f 84f
5:10  -   -   -  20 25 mph 1014.4mb 84f 84f
5:00  -   -   -  20 25 mph 1014.4mb 84f 84f
4:50 6.5ft 7s 5s 20 25 mph 1014.4mb 84f 84f
4:40 6.5ft  -  5s 20 25 mph 1014.5mb 84f 84f
4:30  -   -   -  20 25 mph 1014.5mb 84f 84f
4:20  -   -   -  22 27 mph 1014.6mb 84f 84f
4:10  -   -   -  22 27 mph 1014.6mb 84f 84f
4:00  -   -   -  22 27 mph 1014.5mb 84f 84f
3:50 7ft 7s 5s 22 27 mph 1014.5mb 84f 84f
3:40 7ft  -  5s 22 29 mph 1014.5mb 84f 84f
3:30  -   -   -  22 27 mph 1014.5mb 84f 84f
3:20  -   -   -  22 27 mph 1014.4mb 84f 84f
3:10  -   -   -  22 27 mph 1014.4mb 84f 84f
3:00  -   -   -  20 27 mph 1014.5mb 84f 84f
2:50 6.5ft 7s 5s 20 25 mph 1014.5mb 84f 84f
2:40  -   -   -  20 25 mph 1014.5mb 84f 84f
2:30  -   -   -  22 27 mph 1014.4mb 84f 84f
2:20  -   -   -  20 27 mph 1014.4mb 84f 84f
2:10  -   -   -  20 27 mph 1014.3mb 83f 84f
2:00  -   -   -  20 25 mph 1014.1mb 83f 84f
1:50 6.5ft 7s 5s 20 27 mph 1014mb 83f 84f
1:40  -   -   -  20 25 mph 1013.9mb 83f 84f
1:30  -   -   -  20 25 mph 1013.8mb 83f 84f
1:20  -   -   -  20 25 mph 1013.8mb 83f 84f
1:10  -   -   -  20 25 mph 1013.6mb 83f 84f